createdAt,value
2022-10-22T00:00:08.920Z,14.26
2022-10-22T00:01:09.968Z,16.10
2022-10-22T00:01:49.925Z,16.44
2022-10-22T00:02:30.066Z,16.65
2022-10-22T00:03:10.937Z,16.51
2022-10-22T00:03:57.981Z,16.65
2022-10-22T00:04:54.439Z,16.86
2022-10-22T00:05:48.925Z,16.58
2022-10-22T00:06:42.920Z,16.56
2022-10-22T00:07:37.119Z,17.39
2022-10-22T00:08:32.011Z,17.76
2022-10-22T00:09:20.988Z,16.59
2022-10-22T00:09:55.058Z,16.52
2022-10-22T00:10:44.953Z,17.10
2022-10-22T00:11:24.986Z,15.88
2022-10-22T00:12:12.949Z,16.33
2022-10-22T00:12:46.964Z,17.35
2022-10-22T00:13:33.938Z,16.05
2022-10-22T00:14:07.999Z,14.85
2022-10-22T00:14:49.916Z,15.65
2022-10-22T00:15:43.913Z,14.21
2022-10-22T00:16:37.922Z,14.09
2022-10-22T00:17:31.930Z,15.14
2022-10-22T00:18:25.896Z,14.11
2022-10-22T00:19:19.909Z,12.99
2022-10-22T00:20:06.925Z,13.65
2022-10-22T00:20:41.018Z,14.64
2022-10-22T00:21:27.872Z,14.07
2022-10-22T00:22:05.609Z,14.29
2022-10-22T00:22:52.940Z,13.50
2022-10-22T00:23:26.972Z,12.61
2022-10-22T00:24:13.884Z,13.16
2022-10-22T00:24:47.947Z,14.24
2022-10-22T00:25:29.027Z,13.98
2022-10-22T00:26:08.948Z,12.82
2022-10-22T00:26:49.861Z,13.66
2022-10-22T00:27:29.962Z,13.39
2022-10-22T00:28:10.873Z,12.29
2022-10-22T00:28:50.994Z,12.93
2022-10-22T00:29:31.909Z,13.64
2022-10-22T00:30:13.019Z,13.25
2022-10-22T00:30:53.921Z,13.61
2022-10-22T00:31:34.125Z,13.41
2022-10-22T00:32:14.878Z,13.99
2022-10-22T00:32:54.962Z,14.57
2022-10-22T00:33:36.900Z,14.21
2022-10-22T00:34:18.020Z,14.04
2022-10-22T00:34:57.895Z,15.98
2022-10-22T00:35:37.990Z,13.34
2022-10-22T00:36:18.936Z,12.46
2022-10-22T00:36:59.936Z,13.29
2022-10-22T00:37:40.892Z,13.14
2022-10-22T00:38:21.984Z,13.86
2022-10-22T00:39:03.116Z,14.21
2022-10-22T00:39:43.164Z,13.39
2022-10-22T00:40:22.893Z,12.45
2022-10-22T00:41:05.027Z,13.30
2022-10-22T00:41:46.003Z,13.51
2022-10-22T00:42:37.838Z,13.18
2022-10-22T00:43:20.877Z,14.40
2022-10-22T00:44:08.126Z,13.02
2022-10-22T00:45:18.855Z,13.51
2022-10-22T00:45:58.973Z,13.52
2022-10-22T00:46:39.864Z,12.55
2022-10-22T00:47:22.136Z,12.90
2022-10-22T00:48:11.022Z,13.11
2022-10-22T00:48:58.875Z,13.74
2022-10-22T00:49:32.958Z,14.19
2022-10-22T00:50:25.873Z,13.99
2022-10-22T00:51:10.943Z,13.66
2022-10-22T00:51:57.880Z,13.45
2022-10-22T00:52:40.191Z,14.73
2022-10-22T00:53:50.858Z,13.98
2022-10-22T00:54:44.870Z,13.75
2022-10-22T00:55:40.885Z,12.82
2022-10-22T00:56:36.894Z,13.38
2022-10-22T00:57:31.889Z,13.15
2022-10-22T00:58:12.915Z,13.63
2022-10-22T00:59:01.052Z,13.55
2022-10-22T00:59:41.835Z,14.07
2022-10-22T01:00:22.922Z,14.88
2022-10-22T01:01:03.954Z,12.85
2022-10-22T01:01:45.224Z,12.27
2022-10-22T01:02:25.880Z,13.40
2022-10-22T01:03:07.975Z,12.91
2022-10-22T01:03:47.899Z,11.81
2022-10-22T01:04:27.924Z,12.64
2022-10-22T01:05:08.844Z,12.95
2022-10-22T01:06:10.933Z,13.52
2022-10-22T01:06:50.849Z,13.55
2022-10-22T01:07:31.978Z,14.82
2022-10-22T01:08:13.850Z,14.38
2022-10-22T01:09:19.890Z,15.34
2022-10-22T01:10:35.869Z,14.66
2022-10-22T01:11:40.912Z,13.23
2022-10-22T01:12:56.861Z,13.30
2022-10-22T01:14:32.959Z,13.74
2022-10-22T01:15:45.864Z,13.86
2022-10-22T01:17:13.904Z,14.46
2022-10-22T01:18:50.008Z,12.80
2022-10-22T01:20:10.851Z,13.84
2022-10-22T01:21:44.878Z,13.19
2022-10-22T01:22:45.870Z,12.61
2022-10-22T01:24:16.816Z,12.95
2022-10-22T01:25:49.924Z,12.19
2022-10-22T01:27:17.905Z,12.84
2022-10-22T01:28:46.880Z,12.65
2022-10-22T01:29:53.024Z,12.49
2022-10-22T01:30:47.821Z,13.20
2022-10-22T01:31:28.841Z,14.90
2022-10-22T01:32:17.885Z,13.19
2022-10-22T01:33:08.817Z,12.85
2022-10-22T01:33:50.885Z,13.14
2022-10-22T01:34:32.822Z,12.24
2022-10-22T01:35:19.934Z,13.69
2022-10-22T01:36:00.861Z,13.69
2022-10-22T01:36:42.907Z,12.98
2022-10-22T01:37:24.832Z,12.75
2022-10-22T01:38:08.861Z,13.85
2022-10-22T01:38:49.792Z,12.63
2022-10-22T01:39:30.934Z,11.60
2022-10-22T01:40:12.830Z,11.98
2022-10-22T01:40:53.908Z,13.18
2022-10-22T01:41:35.832Z,12.38
2022-10-22T01:42:15.962Z,12.55
2022-10-22T01:43:22.837Z,13.81
2022-10-22T01:44:02.885Z,12.31
2022-10-22T01:44:43.803Z,12.50
2022-10-22T01:45:23.890Z,13.32
2022-10-22T01:46:08.783Z,12.25
2022-10-22T01:46:55.849Z,12.79
2022-10-22T01:47:57.825Z,15.09
2022-10-22T01:49:36.805Z,12.51
2022-10-22T01:50:45.812Z,12.32
2022-10-22T01:52:36.824Z,13.25
2022-10-22T01:54:12.812Z,11.84
2022-10-22T01:55:30.790Z,10.79
2022-10-22T01:57:05.801Z,11.57
2022-10-22T01:58:09.811Z,13.31
2022-10-22T01:59:20.836Z,13.41
2022-10-22T02:00:17.793Z,11.38
2022-10-22T02:01:00.934Z,12.29
2022-10-22T02:01:48.789Z,12.84
2022-10-22T02:03:02.848Z,12.61
2022-10-22T02:03:54.833Z,11.71
2022-10-22T02:05:10.927Z,10.94
2022-10-22T02:06:00.773Z,12.44
2022-10-22T02:06:41.860Z,11.80
2022-10-22T02:07:27.794Z,10.84
2022-10-22T02:08:21.858Z,11.26
2022-10-22T02:09:02.926Z,12.24
2022-10-22T02:09:43.912Z,11.50
2022-10-22T02:10:24.788Z,10.30
2022-10-22T02:11:05.867Z,11.13
2022-10-22T02:11:47.772Z,11.27
2022-10-22T02:12:28.872Z,11.41
2022-10-22T02:13:09.781Z,11.32
2022-10-22T02:14:07.843Z,11.01
2022-10-22T02:15:02.807Z,10.43
2022-10-22T02:15:58.779Z,10.89
2022-10-22T02:16:57.766Z,13.14
2022-10-22T02:17:52.779Z,12.77
2022-10-22T02:18:48.781Z,11.61
2022-10-22T02:19:34.836Z,11.19
2022-10-22T02:20:38.872Z,10.61
2022-10-22T02:21:19.777Z,10.74
2022-10-22T02:22:00.841Z,10.29
2022-10-22T02:22:43.858Z,11.44
2022-10-22T02:23:23.838Z,12.13
2022-10-22T02:24:04.764Z,11.63
2022-10-22T02:24:51.796Z,10.68
2022-10-22T02:25:52.787Z,11.00
2022-10-22T02:26:53.773Z,12.85
2022-10-22T02:28:05.803Z,13.46
2022-10-22T02:29:26.788Z,10.56
2022-10-22T02:30:24.846Z,12.10
2022-10-22T02:31:03.840Z,12.43
2022-10-22T02:31:52.761Z,11.32
2022-10-22T02:32:29.873Z,11.99
2022-10-22T02:33:25.762Z,12.69
2022-10-22T02:34:04.914Z,11.95
2022-10-22T02:34:52.796Z,12.15
2022-10-22T02:35:36.804Z,12.54
2022-10-22T02:36:31.785Z,13.85
2022-10-22T02:37:25.745Z,11.56
2022-10-22T02:38:20.737Z,10.77
2022-10-22T02:40:10.770Z,13.76
2022-10-22T02:40:57.793Z,11.95
2022-10-22T02:41:31.868Z,11.48
2022-10-22T02:42:19.762Z,11.89
2022-10-22T02:42:55.909Z,12.68
2022-10-22T02:43:55.737Z,11.93
2022-10-22T02:44:29.877Z,11.56
2022-10-22T02:45:17.769Z,12.57
2022-10-22T02:45:52.872Z,12.54
2022-10-22T02:46:33.795Z,11.23
2022-10-22T02:47:13.845Z,10.84
2022-10-22T02:47:54.740Z,12.26
2022-10-22T02:48:34.863Z,11.63
2022-10-22T02:49:14.741Z,11.91
2022-10-22T02:49:56.834Z,12.43
2022-10-22T02:50:36.751Z,11.98
2022-10-22T02:51:16.833Z,11.94
2022-10-22T02:51:57.775Z,11.64
2022-10-22T02:52:38.302Z,12.15
2022-10-22T02:53:18.752Z,11.85
2022-10-22T02:53:58.912Z,12.18
2022-10-22T02:54:38.732Z,12.63
2022-10-22T02:55:18.841Z,10.79
2022-10-22T02:55:58.733Z,11.68
2022-10-22T02:56:38.803Z,12.66
2022-10-22T02:58:04.813Z,10.55
2022-10-22T02:58:44.744Z,10.29
2022-10-22T02:59:24.865Z,12.70
2022-10-22T03:00:04.762Z,10.84
2022-10-22T03:00:44.863Z,11.38
2022-10-22T03:01:24.749Z,12.41
2022-10-22T03:02:04.851Z,11.07
2022-10-22T03:02:45.752Z,11.23
2022-10-22T03:03:25.892Z,11.63
2022-10-22T03:04:05.714Z,10.31
2022-10-22T03:04:45.873Z,11.74
2022-10-22T03:05:25.737Z,11.88
2022-10-22T03:06:05.813Z,10.90
2022-10-22T03:06:49.737Z,11.43
2022-10-22T03:07:29.785Z,10.79
2022-10-22T03:08:10.744Z,10.70
2022-10-22T03:08:50.834Z,11.55
2022-10-22T03:09:30.723Z,10.95
2022-10-22T03:10:11.863Z,10.06
2022-10-22T03:10:52.734Z,11.21
2022-10-22T03:11:32.809Z,12.50
2022-10-22T03:12:14.740Z,12.06
2022-10-22T03:12:54.907Z,11.45
2022-10-22T03:13:35.768Z,12.15
2022-10-22T03:14:18.846Z,12.70
2022-10-22T03:14:58.742Z,12.30
2022-10-22T03:15:38.778Z,10.96
2022-10-22T03:16:18.740Z,12.19
2022-10-22T03:16:58.790Z,11.75
2022-10-22T03:17:39.004Z,11.60
2022-10-22T03:18:19.819Z,12.66
2022-10-22T03:19:00.758Z,13.76
2022-10-22T03:19:42.034Z,12.25
2022-10-22T03:20:21.727Z,11.64
2022-10-22T03:21:36.787Z,12.81
2022-10-22T03:22:22.762Z,12.07
2022-10-22T03:23:03.795Z,11.85
2022-10-22T03:23:44.704Z,12.39
2022-10-22T03:24:30.780Z,12.45
2022-10-22T03:25:08.012Z,13.10
2022-10-22T03:25:55.789Z,12.31
2022-10-22T03:26:30.839Z,12.27
2022-10-22T03:27:19.721Z,12.14
2022-10-22T03:27:53.796Z,11.81
2022-10-22T03:28:42.742Z,13.70
2022-10-22T03:29:17.755Z,12.54
2022-10-22T03:29:59.730Z,11.57
2022-10-22T03:30:39.784Z,11.20
2022-10-22T03:31:19.704Z,11.00
2022-10-22T03:32:00.800Z,11.86
2022-10-22T03:32:40.741Z,13.40
2022-10-22T03:33:20.807Z,13.60
2022-10-22T03:34:00.697Z,13.00
2022-10-22T03:34:43.791Z,12.96
2022-10-22T03:35:23.809Z,11.55
2022-10-22T03:36:03.780Z,11.71
2022-10-22T03:36:44.707Z,11.31
2022-10-22T03:37:25.804Z,11.36
2022-10-22T03:38:07.731Z,10.48
2022-10-22T03:38:47.765Z,11.90
2022-10-22T03:39:29.733Z,12.00
2022-10-22T03:40:11.809Z,10.43
2022-10-22T03:40:52.722Z,10.84
2022-10-22T03:41:33.770Z,12.63
2022-10-22T03:42:14.713Z,11.60
2022-10-22T03:42:54.756Z,10.46
2022-10-22T03:43:34.721Z,10.49
2022-10-22T03:44:14.789Z,10.79
2022-10-22T03:44:54.742Z,11.98
2022-10-22T03:45:48.692Z,11.86
2022-10-22T03:46:28.720Z,10.84
2022-10-22T03:47:08.821Z,11.21
2022-10-22T03:47:48.710Z,11.14
2022-10-22T03:48:28.780Z,10.19
2022-10-22T03:49:09.689Z,11.40
2022-10-22T03:49:49.761Z,12.57
2022-10-22T03:50:29.692Z,12.00
2022-10-22T03:51:10.427Z,10.84
2022-10-22T03:51:50.781Z,11.95
2022-10-22T03:52:30.753Z,12.69
2022-10-22T03:53:11.714Z,12.54
2022-10-22T03:53:51.770Z,12.02
2022-10-22T03:54:31.726Z,10.54
2022-10-22T03:55:13.784Z,10.44
2022-10-22T03:55:53.691Z,10.52
2022-10-22T03:56:33.766Z,10.05
2022-10-22T03:57:14.759Z,10.54
2022-10-22T03:57:54.797Z,11.25
2022-10-22T03:59:15.687Z,11.48
2022-10-22T03:59:58.847Z,11.93
2022-10-22T04:00:43.649Z,10.75
2022-10-22T04:01:27.085Z,10.84
2022-10-22T04:02:09.963Z,11.05
2022-10-22T04:02:52.086Z,10.64
2022-10-22T04:03:28.780Z,10.51
2022-10-22T04:04:15.676Z,10.63
2022-10-22T04:04:50.737Z,10.13
2022-10-22T04:05:40.695Z,11.00
2022-10-22T04:06:19.774Z,11.77
2022-10-22T04:07:06.705Z,10.75
2022-10-22T04:07:41.144Z,10.93
2022-10-22T04:08:22.705Z,11.38
2022-10-22T04:09:02.888Z,11.35
2022-10-22T04:09:43.704Z,10.24
2022-10-22T04:10:23.752Z,10.07
2022-10-22T04:11:03.676Z,11.23
2022-10-22T04:11:51.057Z,12.36
2022-10-22T04:12:30.665Z,11.71
2022-10-22T04:13:13.904Z,10.25
2022-10-22T04:13:53.777Z,10.39
2022-10-22T04:14:33.805Z,11.54
2022-10-22T04:15:14.650Z,10.90
2022-10-22T04:15:54.741Z,10.79
2022-10-22T04:16:37.761Z,9.93
2022-10-22T04:17:17.814Z,10.90
2022-10-22T04:17:57.668Z,12.26
2022-10-22T04:18:37.808Z,12.81
2022-10-22T04:19:18.714Z,12.46
2022-10-22T04:19:58.729Z,12.14
2022-10-22T04:20:38.656Z,10.85
2022-10-22T04:21:20.720Z,10.96
2022-10-22T04:22:00.669Z,10.16
2022-10-22T04:22:43.034Z,10.32
2022-10-22T04:23:23.683Z,11.18
2022-10-22T04:24:03.727Z,11.26
2022-10-22T04:24:44.764Z,11.26
2022-10-22T04:25:24.754Z,11.23
2022-10-22T04:26:11.658Z,11.23
2022-10-22T04:26:51.760Z,11.13
2022-10-22T04:27:31.648Z,10.05
2022-10-22T04:28:16.745Z,9.64
2022-10-22T04:28:58.665Z,10.01
2022-10-22T04:29:38.760Z,10.95
2022-10-22T04:30:19.688Z,10.71
2022-10-22T04:31:04.512Z,11.89
2022-10-22T04:31:44.649Z,11.38
2022-10-22T04:32:24.717Z,11.52
2022-10-22T04:33:04.669Z,11.30
2022-10-22T04:33:44.739Z,11.98
2022-10-22T04:34:25.650Z,12.79
2022-10-22T04:35:11.807Z,13.02
2022-10-22T04:35:51.779Z,12.50
2022-10-22T04:36:52.704Z,13.44
2022-10-22T04:38:26.728Z,12.40
2022-10-22T04:39:11.717Z,12.48
2022-10-22T04:39:57.284Z,11.84
2022-10-22T04:40:38.628Z,11.30
2022-10-22T04:41:21.664Z,12.20
2022-10-22T04:41:56.182Z,11.93
2022-10-22T04:42:43.653Z,11.86
2022-10-22T04:43:20.681Z,12.76
2022-10-22T04:44:11.060Z,12.45
2022-10-22T04:44:53.728Z,11.49
2022-10-22T04:45:41.643Z,12.34
2022-10-22T04:46:16.733Z,11.32
2022-10-22T04:46:56.661Z,12.82
2022-10-22T04:47:44.342Z,12.91
2022-10-22T04:48:24.654Z,12.70
2022-10-22T04:49:05.785Z,11.30
2022-10-22T04:49:46.636Z,11.56
2022-10-22T04:50:26.774Z,12.84
2022-10-22T04:51:07.654Z,12.25
2022-10-22T04:51:47.734Z,11.60
2022-10-22T04:52:27.663Z,11.25
2022-10-22T04:53:07.714Z,11.89
2022-10-22T04:53:47.639Z,11.98
2022-10-22T04:54:30.514Z,12.51
2022-10-22T04:55:13.638Z,12.94
2022-10-22T04:55:53.718Z,13.06
2022-10-22T04:56:37.752Z,12.04
2022-10-22T04:57:31.669Z,11.76
2022-10-22T04:58:12.371Z,11.69
2022-10-22T04:59:07.632Z,12.06
2022-10-22T04:59:41.321Z,13.35
2022-10-22T05:00:29.649Z,13.04
2022-10-22T05:01:14.881Z,11.98
2022-10-22T05:02:01.654Z,12.35
2022-10-22T05:02:41.681Z,13.18
2022-10-22T05:03:21.707Z,13.36
2022-10-22T05:04:04.630Z,11.77
2022-10-22T05:04:44.685Z,11.70
2022-10-22T05:05:24.626Z,11.54
2022-10-22T05:06:08.806Z,10.59
2022-10-22T05:06:48.620Z,10.98
2022-10-22T05:07:28.666Z,10.77
2022-10-22T05:08:08.661Z,10.60
2022-10-22T05:08:48.788Z,11.15
2022-10-22T05:09:28.634Z,11.26
2022-10-22T05:10:09.697Z,11.21
2022-10-22T05:10:49.609Z,10.36
2022-10-22T05:11:33.995Z,10.85
2022-10-22T05:12:14.626Z,12.02
2022-10-22T05:12:54.688Z,10.74
2022-10-22T05:13:34.674Z,11.19
2022-10-22T05:14:15.701Z,11.44
2022-10-22T05:14:55.617Z,11.23
2022-10-22T05:15:36.760Z,11.48
2022-10-22T05:16:17.628Z,11.65
2022-10-22T05:16:59.693Z,11.13
2022-10-22T05:17:43.682Z,10.44
2022-10-22T05:18:23.699Z,11.14
2022-10-22T05:19:06.632Z,11.59
2022-10-22T05:19:46.683Z,11.30
2022-10-22T05:20:26.600Z,11.21
2022-10-22T05:21:07.688Z,10.48
2022-10-22T05:21:47.630Z,10.54
2022-10-22T05:22:27.780Z,10.21
2022-10-22T05:23:07.635Z,11.06
2022-10-22T05:23:48.817Z,10.90
2022-10-22T05:24:29.640Z,11.86
2022-10-22T05:25:12.150Z,11.23
2022-10-22T05:25:52.616Z,10.79
2022-10-22T05:26:35.658Z,10.76
2022-10-22T05:27:15.645Z,11.69
2022-10-22T05:27:58.406Z,12.45
2022-10-22T05:28:41.770Z,10.96
2022-10-22T05:29:21.753Z,10.74
2022-10-22T05:30:01.634Z,12.23
2022-10-22T05:30:41.679Z,14.10
2022-10-22T05:31:22.607Z,9.79
2022-10-22T05:32:03.669Z,10.77
2022-10-22T05:32:43.589Z,11.41
2022-10-22T05:33:24.197Z,10.70
2022-10-22T05:34:04.579Z,10.34
2022-10-22T05:34:44.665Z,12.04
2022-10-22T05:35:24.818Z,12.07
2022-10-22T05:36:05.712Z,12.16
2022-10-22T05:36:46.597Z,12.13
2022-10-22T05:37:27.739Z,9.81
2022-10-22T05:38:07.584Z,11.70
2022-10-22T05:38:47.685Z,14.02
2022-10-22T05:39:27.587Z,13.32
2022-10-22T05:40:19.162Z,11.34
2022-10-22T05:41:11.701Z,11.05
2022-10-22T05:41:53.961Z,11.15
2022-10-22T05:42:39.949Z,14.41
2022-10-22T05:43:20.720Z,13.86
2022-10-22T05:44:05.589Z,12.07
2022-10-22T05:44:45.668Z,12.39
2022-10-22T05:45:25.583Z,12.68
2022-10-22T05:46:23.069Z,13.99
2022-10-22T05:46:57.294Z,12.49
2022-10-22T05:47:45.594Z,11.46
2022-10-22T05:48:19.362Z,13.35
2022-10-22T05:49:17.597Z,14.50
2022-10-22T05:50:03.364Z,11.80
2022-10-22T05:50:58.761Z,12.91
2022-10-22T05:51:46.562Z,13.49
2022-10-22T05:52:27.634Z,13.49
2022-10-22T05:53:07.620Z,13.95
2022-10-22T05:53:49.629Z,12.79
2022-10-22T05:54:29.593Z,11.49
2022-10-22T05:55:10.682Z,11.84
2022-10-22T05:55:51.597Z,13.60
2022-10-22T05:56:33.704Z,13.63
2022-10-22T05:57:14.601Z,13.50
2022-10-22T05:57:54.703Z,12.85
2022-10-22T05:58:34.555Z,12.12
2022-10-22T05:59:17.696Z,10.90
2022-10-22T05:59:57.561Z,11.11
2022-10-22T06:00:37.738Z,11.34
2022-10-22T06:01:36.576Z,11.52
2022-10-22T06:02:26.650Z,11.49
2022-10-22T06:03:00.545Z,11.13
2022-10-22T06:03:51.315Z,11.99
2022-10-22T06:04:25.300Z,13.64
2022-10-22T06:05:14.630Z,12.19
2022-10-22T06:05:48.296Z,11.57
2022-10-22T06:07:02.574Z,11.98
2022-10-22T06:07:42.689Z,11.60
2022-10-22T06:08:22.639Z,12.70
2022-10-22T06:09:03.662Z,12.06
2022-10-22T06:09:43.663Z,11.79
2022-10-22T06:10:27.629Z,10.70
2022-10-22T06:11:07.612Z,10.21
2022-10-22T06:11:47.555Z,11.02
2022-10-22T06:12:30.674Z,11.80
2022-10-22T06:13:14.581Z,10.98
2022-10-22T06:13:58.686Z,11.21
2022-10-22T06:14:39.586Z,11.10
2022-10-22T06:15:21.692Z,10.55
2022-10-22T06:16:01.593Z,10.66
2022-10-22T06:16:41.690Z,11.34
2022-10-22T06:17:22.569Z,11.31
2022-10-22T06:18:02.628Z,11.35
2022-10-22T06:18:42.569Z,10.20
2022-10-22T06:19:32.210Z,10.64
2022-10-22T06:20:13.571Z,10.26
2022-10-22T06:20:53.671Z,10.80
2022-10-22T06:21:33.582Z,11.60
2022-10-22T06:22:14.618Z,12.11
2022-10-22T06:22:54.540Z,10.95
2022-10-22T06:23:34.644Z,12.26
2022-10-22T06:24:15.578Z,13.84
2022-10-22T06:24:55.697Z,12.81
2022-10-22T06:25:35.565Z,11.73
2022-10-22T06:26:17.823Z,11.73
2022-10-22T06:26:58.574Z,12.19
2022-10-22T06:27:39.623Z,11.79
2022-10-22T06:28:19.609Z,11.57
2022-10-22T06:29:00.658Z,12.31
2022-10-22T06:29:40.576Z,11.07
2022-10-22T06:30:27.828Z,12.34
2022-10-22T06:31:09.545Z,12.43
2022-10-22T06:31:49.596Z,13.32
2022-10-22T06:32:29.556Z,12.81
2022-10-22T06:33:09.634Z,12.54
2022-10-22T06:33:50.586Z,11.98
2022-10-22T06:34:33.414Z,11.59
2022-10-22T06:35:14.597Z,11.40
2022-10-22T06:35:54.685Z,11.88
2022-10-22T06:36:34.594Z,11.66
2022-10-22T06:37:16.673Z,11.51
2022-10-22T06:37:56.533Z,12.55
2022-10-22T06:38:36.585Z,13.43
2022-10-22T06:39:20.537Z,13.91
2022-10-22T06:40:00.605Z,11.01
2022-10-22T06:40:40.627Z,10.27
2022-10-22T06:41:25.587Z,11.25
2022-10-22T06:42:09.548Z,13.65
2022-10-22T06:42:49.606Z,14.05
2022-10-22T06:43:29.546Z,15.13
2022-10-22T06:44:09.614Z,13.46
2022-10-22T06:44:49.586Z,10.63
2022-10-22T06:45:29.580Z,12.89
2022-10-22T06:46:16.076Z,13.35
2022-10-22T06:46:59.925Z,11.56
2022-10-22T06:47:43.097Z,12.99
2022-10-22T06:48:23.612Z,13.86
2022-10-22T06:49:09.549Z,11.05
2022-10-22T06:49:50.029Z,10.90
2022-10-22T06:50:30.516Z,12.69
2022-10-22T06:51:20.549Z,14.77
2022-10-22T06:51:54.431Z,13.36
2022-10-22T06:52:41.568Z,13.06
2022-10-22T06:53:15.305Z,13.61
2022-10-22T06:54:03.538Z,14.46
2022-10-22T06:54:37.304Z,14.07
2022-10-22T06:55:25.521Z,11.14
2022-10-22T06:55:59.312Z,11.76
2022-10-22T06:56:40.566Z,12.90
2022-10-22T06:57:14.578Z,13.48
2022-10-22T06:57:48.218Z,13.51
2022-10-22T06:58:28.536Z,10.98
2022-10-22T06:59:03.617Z,10.85
2022-10-22T06:59:37.558Z,11.49
2022-10-22T07:00:18.644Z,12.24
2022-10-22T07:00:52.609Z,12.00
2022-10-22T07:01:33.280Z,12.35
2022-10-22T07:02:15.581Z,11.65
2022-10-22T07:02:49.596Z,12.71
2022-10-22T07:03:23.274Z,12.39
2022-10-22T07:04:04.491Z,14.14
2022-10-22T07:04:38.570Z,13.86
2022-10-22T07:05:13.229Z,11.80
2022-10-22T07:05:53.509Z,12.44
2022-10-22T07:06:29.631Z,13.61
2022-10-22T07:07:03.363Z,14.44
2022-10-22T07:07:43.525Z,13.95
2022-10-22T07:08:17.619Z,14.38
2022-10-22T07:08:51.851Z,14.69
2022-10-22T07:09:31.512Z,13.77
2022-10-22T07:10:05.569Z,16.25
2022-10-22T07:10:39.383Z,15.81
2022-10-22T07:11:32.514Z,13.94
2022-10-22T07:12:06.593Z,14.69
2022-10-22T07:12:40.485Z,14.05
2022-10-22T07:13:23.597Z,14.99
2022-10-22T07:13:58.632Z,14.59
2022-10-22T07:14:32.399Z,15.26
2022-10-22T07:15:13.545Z,14.88
2022-10-22T07:15:47.577Z,14.80
2022-10-22T07:16:21.359Z,15.25
2022-10-22T07:17:02.507Z,17.61
2022-10-22T07:17:36.593Z,18.44
2022-10-22T07:18:10.227Z,16.86
2022-10-22T07:18:51.600Z,15.98
2022-10-22T07:19:25.679Z,14.90
2022-10-22T07:20:00.691Z,15.70
2022-10-22T07:20:41.518Z,17.38
2022-10-22T07:21:17.888Z,18.76
2022-10-22T07:21:52.248Z,18.25
2022-10-22T07:22:33.488Z,16.88
2022-10-22T07:23:07.629Z,14.20
2022-10-22T07:23:41.339Z,14.65
2022-10-22T07:24:22.525Z,15.36
2022-10-22T07:24:56.549Z,17.27
2022-10-22T07:25:30.286Z,16.51
2022-10-22T07:26:13.513Z,15.06
2022-10-22T07:26:49.212Z,16.77
2022-10-22T07:27:23.470Z,17.24
2022-10-22T07:28:03.489Z,14.81
2022-10-22T07:28:39.708Z,14.40
2022-10-22T07:29:15.394Z,14.39
2022-10-22T07:29:55.515Z,14.59
2022-10-22T07:30:29.585Z,14.32
2022-10-22T07:31:03.520Z,15.04
2022-10-22T07:31:43.562Z,14.84
2022-10-22T07:32:22.839Z,15.02
2022-10-22T07:32:59.858Z,13.94
2022-10-22T07:33:40.642Z,13.51
2022-10-22T07:34:14.678Z,15.14
2022-10-22T07:34:48.833Z,15.14
2022-10-22T07:35:40.603Z,14.75
2022-10-22T07:36:26.247Z,16.13
2022-10-22T07:37:00.326Z,15.13
2022-10-22T07:37:50.883Z,14.95
2022-10-22T07:38:24.581Z,13.56
2022-10-22T07:38:59.830Z,14.50
2022-10-22T07:39:39.507Z,14.85
2022-10-22T07:40:14.647Z,15.75
2022-10-22T07:40:56.611Z,14.85
2022-10-22T07:41:37.705Z,14.59
2022-10-22T07:42:18.565Z,13.23
2022-10-22T07:42:58.716Z,12.26
2022-10-22T07:43:41.758Z,13.86
2022-10-22T07:44:29.592Z,14.69
2022-10-22T07:45:19.319Z,15.41
2022-10-22T07:46:13.663Z,15.21
2022-10-22T07:46:50.688Z,15.91
2022-10-22T07:47:37.643Z,14.49
2022-10-22T07:48:15.614Z,13.64
2022-10-22T07:49:03.563Z,14.07
2022-10-22T07:49:37.294Z,13.60
2022-10-22T07:50:24.630Z,14.48
2022-10-22T07:50:58.413Z,15.40
2022-10-22T07:51:47.016Z,15.70
2022-10-22T07:52:20.652Z,16.44
2022-10-22T07:52:58.276Z,15.99
2022-10-22T07:53:49.583Z,16.09
2022-10-22T07:54:23.566Z,15.40
2022-10-22T07:54:57.181Z,16.14
2022-10-22T07:55:37.478Z,14.63
2022-10-22T07:56:12.653Z,13.96
2022-10-22T07:56:53.538Z,14.74
2022-10-22T07:57:33.697Z,17.24
2022-10-22T07:58:14.760Z,18.14
2022-10-22T07:58:55.752Z,16.91
2022-10-22T07:59:35.627Z,15.75
2022-10-22T08:00:25.186Z,17.24
2022-10-22T08:01:23.604Z,16.96
2022-10-22T08:03:39.518Z,16.15
2022-10-22T08:04:20.734Z,14.88
2022-10-22T08:06:53.565Z,15.99
2022-10-22T08:07:30.386Z,15.61
2022-10-22T08:08:04.421Z,15.13
2022-10-22T08:08:44.593Z,14.71
2022-10-22T08:09:18.541Z,15.07
2022-10-22T08:09:53.255Z,14.21
2022-10-22T08:10:36.492Z,15.32
2022-10-22T08:11:10.593Z,16.45
2022-10-22T08:11:46.295Z,15.06
2022-10-22T08:12:27.523Z,15.31
2022-10-22T08:13:01.542Z,15.98
2022-10-22T08:13:35.249Z,15.51
2022-10-22T08:14:15.476Z,16.36
2022-10-22T08:14:49.554Z,16.61
2022-10-22T08:15:25.490Z,16.29
2022-10-22T08:16:07.454Z,16.79
2022-10-22T08:16:44.546Z,15.82
2022-10-22T08:17:18.220Z,15.51
2022-10-22T08:18:00.552Z,15.46
2022-10-22T08:18:35.570Z,13.94
2022-10-22T08:19:10.251Z,13.29
2022-10-22T08:19:55.467Z,13.70
2022-10-22T08:20:29.602Z,15.06
2022-10-22T08:21:03.433Z,16.58
2022-10-22T08:21:45.500Z,17.40
2022-10-22T08:22:19.503Z,15.11
2022-10-22T08:22:56.281Z,13.50
2022-10-22T08:23:37.524Z,15.54
2022-10-22T08:24:13.588Z,15.63
2022-10-22T08:24:50.445Z,15.27
2022-10-22T08:25:33.495Z,14.00
2022-10-22T08:26:07.624Z,14.84
2022-10-22T08:26:49.151Z,17.08
2022-10-22T08:27:30.840Z,15.49
2022-10-22T08:28:32.876Z,14.21
2022-10-22T08:29:16.985Z,14.82
2022-10-22T08:29:57.453Z,14.55
2022-10-22T08:30:45.525Z,14.04
2022-10-22T08:31:39.528Z,12.99
2022-10-22T08:32:33.552Z,13.14
2022-10-22T08:33:29.630Z,13.96
2022-10-22T08:34:23.441Z,13.35
2022-10-22T08:35:18.681Z,14.44
2022-10-22T08:36:05.480Z,14.71
2022-10-22T08:36:39.529Z,15.35
2022-10-22T08:37:26.624Z,14.77
2022-10-22T08:38:01.528Z,13.96
2022-10-22T08:38:53.469Z,14.61
2022-10-22T08:39:27.653Z,15.79
2022-10-22T08:40:16.424Z,13.84
2022-10-22T08:40:55.569Z,13.69
2022-10-22T08:41:36.466Z,15.09
2022-10-22T08:43:08.636Z,15.74
2022-10-22T08:44:00.450Z,14.55
2022-10-22T08:45:29.478Z,14.31
2022-10-22T08:46:51.552Z,13.89
2022-10-22T08:48:01.478Z,13.77
2022-10-22T08:49:01.459Z,14.09
2022-10-22T08:49:45.522Z,14.31
2022-10-22T08:50:44.477Z,15.06
2022-10-22T08:51:34.579Z,15.95
2022-10-22T08:52:23.601Z,15.90
2022-10-22T08:53:05.557Z,15.52
2022-10-22T08:53:56.416Z,15.43
2022-10-22T08:55:13.608Z,15.69
2022-10-22T08:55:54.426Z,17.44
2022-10-22T08:56:35.534Z,19.77
2022-10-22T08:57:15.419Z,19.38
2022-10-22T08:58:12.486Z,17.89
2022-10-22T08:59:04.717Z,16.64
2022-10-22T08:59:59.438Z,14.64
2022-10-22T09:00:49.508Z,15.44
2022-10-22T09:01:44.443Z,14.76
2022-10-22T09:02:41.919Z,14.57
2022-10-22T09:04:03.441Z,14.81
2022-10-22T09:04:48.892Z,16.36
2022-10-22T09:06:12.442Z,18.33
2022-10-22T09:06:49.585Z,15.94
2022-10-22T09:07:39.866Z,16.46
2022-10-22T09:08:19.563Z,15.64
2022-10-22T09:09:08.469Z,15.75
2022-10-22T09:09:49.723Z,15.34
2022-10-22T09:10:41.656Z,14.69
2022-10-22T09:11:40.568Z,15.43
2022-10-22T09:12:29.587Z,14.55
2022-10-22T09:13:04.899Z,15.80
2022-10-22T09:13:55.527Z,15.35
2022-10-22T09:14:39.640Z,14.51
2022-10-22T09:15:34.438Z,15.15
2022-10-22T09:16:48.541Z,15.75
2022-10-22T09:17:59.441Z,16.09
2022-10-22T09:19:31.457Z,16.42
2022-10-22T09:20:33.415Z,17.89
2022-10-22T09:21:54.477Z,18.08
2022-10-22T09:22:42.408Z,17.99
2022-10-22T09:24:07.608Z,17.74
2022-10-22T09:24:56.395Z,17.21
2022-10-22T09:25:47.441Z,18.91
2022-10-22T09:26:42.784Z,21.39
2022-10-22T09:27:42.721Z,20.52
2022-10-22T09:28:37.413Z,16.50
2022-10-22T09:29:36.428Z,17.10
2022-10-22T09:30:41.401Z,16.33
2022-10-22T09:31:23.429Z,15.91
2022-10-22T09:32:03.514Z,16.71
2022-10-22T09:32:44.398Z,15.04
2022-10-22T09:33:35.483Z,14.19
2022-10-22T09:34:15.384Z,15.13
2022-10-22T09:34:56.442Z,16.40
2022-10-22T09:35:42.462Z,14.79
2022-10-22T09:36:34.533Z,13.86
2022-10-22T09:37:32.475Z,14.82
2022-10-22T09:38:29.447Z,15.52
2022-10-22T09:39:47.407Z,14.85
2022-10-22T09:40:41.456Z,15.60
2022-10-22T09:41:40.433Z,16.30
2022-10-22T09:42:35.441Z,15.44
2022-10-22T09:43:33.396Z,15.29
2022-10-22T09:44:27.404Z,16.70